Time;durP1;ratioP1;P1;durP2;ratioP2;P2;SDS_P1;SDS_P2;PMS_P1;PMS_P2;Temp;Humidity;BMP_temperature;BMP_pressure;BME280_temperature;BME280_humidity;BME280_pressure;Samples;Min_cycle;Max_cycle;Signal;HPM_P1;HPM_P2
2023/07/09 00:02:02;;;;;;;12.13;7.00;;;;;;;-142.75;100.00;75586.19;5005504;28;20030;-63
2023/07/09 00:04:28;;;;;;;13.65;6.72;;;;;;;-142.75;100.00;75592.09;5004564;28;20034;-63
2023/07/09 00:06:57;;;;;;;14.02;6.80;;;;;;;-142.75;100.00;75596.00;5004911;28;20036;-63
2023/07/09 00:09:22;;;;;;;11.13;6.00;;;;;;;-142.75;100.00;75611.75;5004559;28;20439;-63
2023/07/09 00:11:50;;;;;;;11.10;6.40;;;;;;;-142.75;100.00;75629.47;5004673;28;20021;-63
2023/07/09 00:14:18;;;;;;;13.25;7.25;;;;;;;-142.75;100.00;75637.34;5004548;28;20025;-63
2023/07/09 00:16:46;;;;;;;11.13;6.90;;;;;;;-142.75;100.00;75645.22;5003820;28;20030;-64
2023/07/09 00:19:17;;;;;;;11.15;6.07;;;;;;;-142.75;100.00;75653.09;4996277;28;20033;-64
2023/07/09 00:21:45;;;;;;;11.80;6.57;;;;;;;-142.75;100.00;75655.06;4985261;28;20026;-64
2023/07/09 00:24:13;;;;;;;13.40;7.15;;;;;;;-142.75;100.00;75660.97;4985200;28;20121;-64
2023/07/09 00:26:43;;;;;;;15.82;7.90;;;;;;;-142.75;100.00;75659.00;4984928;28;20448;-64
2023/07/09 00:29:11;;;;;;;15.50;7.38;;;;;;;-142.75;100.00;75647.19;4985094;28;20022;-64
2023/07/09 00:31:41;;;;;;;11.00;6.65;;;;;;;-142.75;100.00;75645.22;4983825;28;20038;-64
2023/07/09 00:34:08;;;;;;;13.80;7.63;;;;;;;-142.75;100.00;75645.22;4984814;28;20022;-63
2023/07/09 00:36:34;;;;;;;14.27;7.30;;;;;;;-142.75;100.00;75660.97;4999895;28;20488;-64
2023/07/09 00:39:04;;;;;;;15.07;8.88;;;;;;;-142.75;100.00;75657.03;4988965;28;20161;-64
2023/07/09 00:41:33;;;;;;;13.55;7.10;;;;;;;-142.75;100.00;75659.00;4985047;28;20041;-64
2023/07/09 00:44:21;;;;;;;11.43;6.43;;;;;;;-142.75;100.00;75660.97;4984684;28;20076;-64
2023/07/09 00:46:49;;;;;;;10.85;6.93;;;;;;;-142.75;100.00;75670.81;4977540;28;20042;-64
2023/07/09 00:49:26;;;;;;;11.88;6.78;;;;;;;-142.75;100.00;75684.56;4989204;28;20025;-64
2023/07/09 00:51:52;;;;;;;12.18;6.60;;;;;;;-142.75;100.00;75702.28;5004126;28;20030;-64
2023/07/09 00:54:39;;;;;;;12.35;7.20;;;;;;;-142.75;100.00;75700.31;5004005;28;20547;-64
2023/07/09 00:57:12;;;;;;;11.40;6.63;;;;;;;-142.75;100.00;75680.63;5003882;28;20054;-65
2023/07/09 00:59:39;;;;;;;12.18;6.55;;;;;;;-142.75;100.00;75664.91;5004534;28;20065;-64
2023/07/09 01:02:07;;;;;;;12.43;6.50;;;;;;;-142.75;100.00;75655.06;5004232;28;20057;-65
2023/07/09 01:04:32;;;;;;;12.20;6.20;;;;;;;-142.75;100.00;75660.97;5001045;28;20037;-64
2023/07/09 01:06:57;;;;;;;9.35;6.85;;;;;;;-142.75;100.00;75653.09;4984793;28;20030;-64
2023/07/09 01:09:25;;;;;;;14.57;7.40;;;;;;;-142.75;100.00;75657.03;4984245;28;20022;-64
2023/07/09 01:11:50;;;;;;;11.00;5.50;;;;;;;-142.75;100.00;75645.22;4984433;28;20034;-64
2023/07/09 01:14:21;;;;;;;10.32;6.13;;;;;;;-142.75;100.00;75641.28;4984462;28;20038;-65
2023/07/09 01:16:56;;;;;;;12.65;7.07;;;;;;;-142.75;100.00;75649.16;4984519;28;20030;-65
2023/07/09 01:19:25;;;;;;;12.38;7.30;;;;;;;-142.75;100.00;75670.81;4983863;28;20569;-65
2023/07/09 01:21:53;;;;;;;12.02;6.97;;;;;;;-142.75;100.00;75674.72;4984247;28;20038;-65
2023/07/09 01:24:56;;;;;;;13.88;6.75;;;;;;;-142.75;100.00;75672.78;4984453;28;20031;-64
2023/07/09 01:27:28;;;;;;;12.25;7.25;;;;;;;-142.75;100.00;75688.50;4981622;28;20038;-65
2023/07/09 01:29:55;;;;;;;10.13;6.50;;;;;;;-142.75;100.00;75694.41;4988178;28;20030;-65
2023/07/09 01:32:21;;;;;;;10.75;6.13;;;;;;;-142.75;100.00;75700.31;4988324;28;20026;-64
2023/07/09 01:34:50;;;;;;;10.25;6.15;;;;;;;-142.75;100.00;75696.38;4988350;28;20548;-65
2023/07/09 01:37:17;;;;;;;11.50;7.07;;;;;;;-142.75;100.00;75708.19;5004838;28;20473;-65
2023/07/09 01:39:43;;;;;;;11.50;6.25;;;;;;;-142.75;100.00;75716.06;5007175;28;20021;-64
2023/07/09 01:42:09;;;;;;;8.82;6.57;;;;;;;-142.75;100.00;75716.06;5007406;28;20040;-65
2023/07/09 01:44:36;;;;;;;13.38;7.10;;;;;;;-142.75;100.00;75720.00;5007341;28;20065;-65
2023/07/09 01:47:03;;;;;;;13.48;8.15;;;;;;;-142.75;100.00;75729.84;5007627;28;20025;-65
2023/07/09 01:49:29;;;;;;;11.43;6.80;;;;;;;-142.75;100.00;75727.88;5007081;28;20022;-65
2023/07/09 01:51:55;;;;;;;15.45;7.80;;;;;;;-142.75;100.00;75763.28;5007273;28;20176;-65
2023/07/09 01:54:20;;;;;;;15.75;8.82;;;;;;;-142.75;100.00;75745.59;5006853;28;20618;-64
2023/07/09 01:56:46;;;;;;;19.15;9.32;;;;;;;-142.75;100.00;75741.66;5006972;28;20516;-64
2023/07/09 01:59:11;;;;;;;22.08;11.13;;;;;;;-142.75;100.00;75733.78;4999984;28;20046;-65
2023/07/09 02:01:37;;;;;;;16.70;8.32;;;;;;;-142.75;100.00;75727.88;4987711;28;20026;-65
2023/07/09 02:04:03;;;;;;;11.75;6.45;;;;;;;-142.75;100.00;75725.91;4987640;28;20524;-65
2023/07/09 02:06:31;;;;;;;13.05;7.70;;;;;;;-142.75;100.00;75727.88;4986756;28;20026;-65
2023/07/09 02:08:58;;;;;;;9.93;6.47;;;;;;;-142.75;100.00;75708.19;4987007;28;20030;-65
2023/07/09 02:11:23;;;;;;;13.40;6.93;;;;;;;-142.75;100.00;75706.22;4987412;28;20640;-65
2023/07/09 02:13:48;;;;;;;13.65;7.88;;;;;;;-142.75;100.00;75712.13;4987460;28;20018;-65
2023/07/09 02:16:14;;;;;;;16.40;8.57;;;;;;;-142.75;100.00;75720.00;4987675;28;20045;-65
2023/07/09 02:18:39;;;;;;;10.85;7.28;;;;;;;-142.75;100.00;75720.00;4986994;28;20042;-65
2023/07/09 02:21:04;;;;;;;9.80;5.10;;;;;;;-142.75;100.00;75712.13;4987463;28;20053;-62
2023/07/09 02:23:30;;;;;;;7.85;5.32;;;;;;;-142.75;100.00;75720.00;4986091;28;20023;-65
2023/07/09 02:25:55;;;;;;;13.30;7.22;;;;;;;-142.75;100.00;75716.06;4987090;28;20113;-64
2023/07/09 02:28:20;;;;;;;10.73;6.60;;;;;;;-142.75;100.00;75716.06;4987203;28;20422;-65
2023/07/09 02:30:46;;;;;;;11.25;6.80;;;;;;;-142.75;100.00;75708.19;4987630;28;20161;-64
2023/07/09 02:33:11;;;;;;;13.10;6.57;;;;;;;-142.75;100.00;75716.06;4986899;28;20493;-65
2023/07/09 02:35:36;;;;;;;11.88;6.40;;;;;;;-142.75;100.00;75723.94;4987194;28;20509;-64
2023/07/09 02:38:03;;;;;;;14.65;7.20;;;;;;;-142.75;100.00;75729.84;4986965;28;20026;-64
2023/07/09 02:40:29;;;;;;;9.30;6.43;;;;;;;-142.75;100.00;75729.84;4997820;28;20493;-64
2023/07/09 02:42:54;;;;;;;9.10;5.72;;;;;;;-142.75;100.00;75743.63;5001284;28;20052;-64
2023/07/09 02:45:20;;;;;;;12.57;6.85;;;;;;;-142.75;100.00;75751.50;4987047;28;20037;-64
2023/07/09 02:47:45;;;;;;;12.05;6.57;;;;;;;-142.75;100.00;75755.44;4986720;28;20105;-64
2023/07/09 02:50:11;;;;;;;12.45;7.38;;;;;;;-142.75;100.00;75755.44;4986812;28;20030;-64
2023/07/09 02:52:36;;;;;;;11.63;6.90;;;;;;;-142.75;100.00;75759.38;5001946;28;20034;-64
2023/07/09 02:55:02;;;;;;;10.50;6.60;;;;;;;-142.75;100.00;75763.28;4985519;28;20034;-64
2023/07/09 02:57:27;;;;;;;11.07;7.68;;;;;;;-142.75;100.00;75781.00;4998727;28;20026;-64
2023/07/09 02:59:52;;;;;;;8.93;5.97;;;;;;;-142.75;100.00;75763.28;5006761;28;20237;-64
2023/07/09 03:02:18;;;;;;;9.95;6.90;;;;;;;-142.75;100.00;75759.38;5004653;28;20511;-64
2023/07/09 03:04:43;;;;;;;10.13;6.78;;;;;;;-142.75;100.00;75749.53;5001270;28;20026;-64
2023/07/09 03:07:09;;;;;;;10.40;6.03;;;;;;;-142.75;100.00;75729.84;4990215;28;20099;-65
2023/07/09 03:09:34;;;;;;;14.70;5.68;;;;;;;-142.75;100.00;75735.75;4994975;28;20073;-64
2023/07/09 03:11:59;;;;;;;11.15;6.70;;;;;;;-142.75;100.00;75737.72;4986544;28;20188;-64
2023/07/09 03:14:25;;;;;;;15.95;8.35;;;;;;;-142.75;100.00;75751.50;4986396;28;20119;-64
2023/07/09 03:16:50;;;;;;;13.85;8.23;;;;;;;-142.75;100.00;75757.41;4986273;28;20033;-64
2023/07/09 03:19:16;;;;;;;10.68;7.72;;;;;;;-142.75;100.00;75751.50;4985733;28;20034;-63
2023/07/09 03:21:41;;;;;;;14.75;7.30;;;;;;;-142.75;100.00;75755.44;4986128;28;20501;-64
2023/07/09 03:24:08;;;;;;;16.25;8.15;;;;;;;-142.75;100.00;75755.44;4997386;28;20103;-64
2023/07/09 03:26:34;;;;;;;15.48;8.10;;;;;;;-142.75;100.00;75759.38;5005489;28;20148;-64
2023/07/09 03:28:59;;;;;;;13.20;9.23;;;;;;;-142.75;100.00;75769.19;5006404;28;20101;-64
2023/07/09 03:31:24;;;;;;;15.00;10.95;;;;;;;-142.75;100.00;75782.97;5005731;28;20135;-65
2023/07/09 03:33:51;;;;;;;15.23;9.25;;;;;;;-142.75;100.00;75788.88;4993305;28;20085;-64
2023/07/09 03:36:19;;;;;;;18.42;10.80;;;;;;;-142.75;100.00;75790.84;4987335;28;20038;-64
2023/07/09 03:38:45;;;;;;;13.25;8.60;;;;;;;-142.75;100.00;75794.78;5005068;28;20030;-64
2023/07/09 03:41:10;;;;;;;16.92;8.82;;;;;;;-142.75;100.00;75786.91;5005011;28;20034;-64
2023/07/09 03:43:35;;;;;;;11.75;8.07;;;;;;;-142.75;100.00;75784.94;5005218;28;20108;-64
2023/07/09 03:46:01;;;;;;;15.30;8.20;;;;;;;-142.75;100.00;75786.91;5005225;28;20408;-65
2023/07/09 03:48:26;;;;;;;12.02;8.25;;;;;;;-142.75;100.00;75781.00;5004863;28;20421;-64
2023/07/09 03:50:52;;;;;;;13.27;8.10;;;;;;;-142.75;100.00;75779.03;5003787;28;20512;-64
2023/07/09 03:53:17;;;;;;;12.45;7.93;;;;;;;-142.75;100.00;75782.97;5004974;28;20059;-64
2023/07/09 03:55:46;;;;;;;12.23;7.40;;;;;;;-142.75;100.00;75781.00;5004889;28;20049;-64
2023/07/09 03:58:11;;;;;;;11.45;7.63;;;;;;;-142.75;100.00;75781.00;5004583;28;20033;-65
2023/07/09 04:00:36;;;;;;;12.45;7.20;;;;;;;-142.75;100.00;75775.09;5005887;28;20389;-64
2023/07/09 04:03:02;;;;;;;9.57;6.50;;;;;;;-142.75;100.00;75765.25;5005185;28;20034;-64
2023/07/09 04:05:28;;;;;;;14.98;6.82;;;;;;;-142.75;100.00;75763.28;5004980;28;20093;-64
2023/07/09 04:07:54;;;;;;;11.05;7.70;;;;;;;-142.75;100.00;75755.44;5004802;28;20032;-64
2023/07/09 04:10:20;;;;;;;13.85;7.35;;;;;;;-142.75;100.00;75747.56;5004676;28;20033;-64
2023/07/09 04:12:45;;;;;;;13.63;7.13;;;;;;;-142.75;100.00;75743.63;5004846;28;20436;-65
2023/07/09 04:15:12;;;;;;;11.35;7.00;;;;;;;-142.75;100.00;75743.63;5004652;28;20391;-64
2023/07/09 04:17:38;;;;;;;10.20;6.78;;;;;;;-142.75;100.00;75755.44;5003348;28;20026;-65
2023/07/09 04:20:08;;;;;;;11.80;7.60;;;;;;;-142.75;100.00;75749.53;4988965;28;20514;-64
2023/07/09 04:22:35;;;;;;;11.30;6.55;;;;;;;-142.75;100.00;75745.59;4985145;28;20030;-64
2023/07/09 04:25:00;;;;;;;9.10;6.30;;;;;;;-142.75;100.00;75745.59;4995254;28;20033;-64
2023/07/09 04:27:28;;;;;;;10.80;7.05;;;;;;;-142.75;100.00;75751.50;5004518;28;20388;-64
2023/07/09 04:29:54;;;;;;;11.93;6.20;;;;;;;-142.75;100.00;75751.50;5005108;28;20376;-64
2023/07/09 04:32:20;;;;;;;11.82;7.45;;;;;;;-142.75;100.00;75755.44;5004499;28;21603;-65
2023/07/09 04:34:46;;;;;;;10.52;7.38;;;;;;;-142.75;100.00;75765.25;5004468;28;20022;-64
2023/07/09 04:37:12;;;;;;;10.75;7.07;;;;;;;-142.75;100.00;75765.25;5004356;28;20034;-65
2023/07/09 04:39:38;;;;;;;10.88;7.30;;;;;;;-142.75;100.00;75769.19;5003928;28;20025;-65
2023/07/09 04:42:05;;;;;;;10.95;7.47;;;;;;;-142.75;100.00;75759.38;5004399;28;20041;-64
2023/07/09 04:44:31;;;;;;;15.65;7.65;;;;;;;-142.75;100.00;75759.38;5004380;28;20046;-64
2023/07/09 04:46:56;;;;;;;10.27;7.45;;;;;;;-142.75;100.00;75757.41;5004313;28;20030;-64
2023/07/09 04:49:22;;;;;;;11.05;7.88;;;;;;;-142.75;100.00;75753.47;4990211;28;20122;-64
2023/07/09 04:51:47;;;;;;;12.15;7.82;;;;;;;-142.75;100.00;75747.56;4984389;28;20056;-64
2023/07/09 04:54:14;;;;;;;13.43;7.15;;;;;;;-142.75;100.00;75743.63;4984595;28;20049;-64
2023/07/09 04:56:41;;;;;;;13.85;8.90;;;;;;;-142.75;100.00;75751.50;4984725;28;20036;-64
2023/07/09 04:59:06;;;;;;;15.88;8.65;;;;;;;-142.75;100.00;75743.63;4985131;28;20417;-65
2023/07/09 05:01:31;;;;;;;16.33;7.97;;;;;;;-142.75;100.00;75739.69;4984495;28;20034;-65
2023/07/09 05:03:57;;;;;;;10.90;8.27;;;;;;;-142.75;100.00;75733.78;4988352;28;20595;-64
2023/07/09 05:06:22;;;;;;;14.52;8.93;;;;;;;-142.75;100.00;75745.59;4990980;28;20069;-65
2023/07/09 05:08:48;;;;;;;13.48;8.90;;;;;;;-142.75;100.00;75745.59;4990960;28;20046;-65
2023/07/09 05:11:14;;;;;;;9.68;8.00;;;;;;;-142.75;100.00;75749.53;4991170;28;20034;-64
2023/07/09 05:13:39;;;;;;;15.85;8.05;;;;;;;-142.75;100.00;75716.06;4991676;28;20106;-64
2023/07/09 05:16:05;;;;;;;13.85;9.40;;;;;;;-142.75;100.00;75723.94;5006497;28;20057;-62
2023/07/09 05:18:30;;;;;;;16.17;8.38;;;;;;;-142.75;100.00;75708.19;4991637;28;20054;-64
2023/07/09 05:20:55;;;;;;;15.15;8.70;;;;;;;-142.75;100.00;75696.38;4991282;28;20053;-64
2023/07/09 05:23:24;;;;;;;14.98;8.65;;;;;;;-142.75;100.00;75664.91;4991406;28;20113;-64
2023/07/09 05:25:49;;;;;;;11.93;7.97;;;;;;;-142.75;100.00;75670.81;4992282;28;20386;-64
2023/07/09 05:28:15;;;;;;;12.88;9.38;;;;;;;-142.75;100.00;75662.94;4991171;28;20022;-64
2023/07/09 05:30:43;;;;;;;10.77;7.97;;;;;;;-142.75;100.00;75641.28;4992658;28;20452;-64
2023/07/09 05:33:09;;;;;;;14.65;9.68;;;;;;;-142.75;100.00;75653.09;4991398;28;20034;-65
2023/07/09 05:35:34;;;;;;;15.88;9.50;;;;;;;-142.75;100.00;75659.00;4991389;28;20444;-65
2023/07/09 05:38:00;;;;;;;14.85;9.18;;;;;;;-142.75;100.00;75629.47;4991349;28;20031;-64
2023/07/09 05:40:25;;;;;;;12.75;8.98;;;;;;;-142.75;100.00;75621.59;4991366;28;20062;-64
2023/07/09 05:42:50;;;;;;;13.55;9.55;;;;;;;-142.75;100.00;75629.47;4991226;28;20461;-64
2023/07/09 05:45:16;;;;;;;13.98;9.50;;;;;;;-142.75;100.00;75627.50;4991486;28;20069;-65
2023/07/09 05:47:41;;;;;;;16.83;9.82;;;;;;;-142.75;100.00;75619.63;4991293;28;20093;-65
2023/07/09 05:50:07;;;;;;;13.75;9.95;;;;;;;-142.75;100.00;75597.97;4990884;28;20027;-65
2023/07/09 05:52:34;;;;;;;14.13;9.27;;;;;;;-142.75;100.00;75592.09;4991737;28;20084;-65
2023/07/09 05:54:59;;;;;;;15.43;8.48;;;;;;;-142.75;100.00;75568.47;5008492;28;20441;-65
2023/07/09 05:57:25;;;;;;;16.63;10.07;;;;;;;-142.75;100.00;75576.34;5010718;28;20026;-65
2023/07/09 05:59:50;;;;;;;17.00;10.65;;;;;;;-142.75;100.00;75572.41;5011570;28;20029;-65
2023/07/09 06:02:18;;;;;;;14.05;9.63;;;;;;;-142.75;100.00;75560.59;5003904;28;20037;-65
2023/07/09 06:04:45;;;;;;;14.50;9.98;;;;;;;-142.75;100.00;75570.44;5010608;28;20456;-65
2023/07/09 06:07:11;;;;;;;18.00;10.98;;;;;;;-142.75;100.00;75574.38;5009440;28;20022;-65
2023/07/09 06:09:36;;;;;;;19.20;11.65;;;;;;;-142.75;100.00;75594.06;5010416;28;20080;-64
2023/07/09 06:12:03;;;;;;;22.25;12.07;;;;;;;-142.75;100.00;75582.25;5010717;28;21044;-65
2023/07/09 06:14:29;;;;;;;20.75;13.35;;;;;;;-142.75;100.00;75586.19;5009132;28;20037;-65
2023/07/09 06:16:54;;;;;;;23.52;13.90;;;;;;;-142.75;100.00;75605.84;4988459;28;20524;-65
2023/07/09 06:19:19;;;;;;;21.85;14.23;;;;;;;-142.75;100.00;75605.84;4987135;28;20034;-65
2023/07/09 06:21:45;;;;;;;19.63;13.27;;;;;;;-142.75;100.00;75596.00;4988061;28;20065;-65
2023/07/09 06:24:10;;;;;;;22.80;14.20;;;;;;;-142.75;100.00;75592.09;5002860;28;20108;-64
2023/07/09 06:26:36;;;;;;;18.23;12.88;;;;;;;-142.75;100.00;75558.63;5007166;28;20472;-65
2023/07/09 06:29:02;;;;;;;19.73;13.52;;;;;;;-142.75;100.00;75560.59;5000838;28;20022;-65
2023/07/09 06:31:27;;;;;;;20.33;12.38;;;;;;;-142.75;100.00;75554.69;4998879;28;20022;-65
2023/07/09 06:33:53;;;;;;;14.45;10.25;;;;;;;-142.75;100.00;75538.94;4987677;28;20106;-65
2023/07/09 06:36:18;;;;;;;20.63;11.65;;;;;;;-142.75;100.00;75544.84;4987795;28;20064;-65
2023/07/09 06:38:44;;;;;;;17.50;10.98;;;;;;;-142.75;100.00;75527.13;4987299;28;20030;-65
2023/07/09 06:41:10;;;;;;;16.63;11.50;;;;;;;-142.75;100.00;75513.38;4987540;28;20038;-64
2023/07/09 06:43:38;;;;;;;19.65;11.52;;;;;;;-142.75;100.00;75517.28;4987541;28;20027;-64
2023/07/09 06:46:05;;;;;;;18.95;12.20;;;;;;;-142.75;100.00;75507.47;4987895;28;20034;-64
2023/07/09 06:48:31;;;;;;;20.00;12.35;;;;;;;-142.75;100.00;75503.53;4987146;28;20027;-65
2023/07/09 06:50:58;;;;;;;19.23;11.63;;;;;;;-142.75;100.00;75489.75;4987362;28;20524;-64
2023/07/09 06:53:24;;;;;;;20.52;11.77;;;;;;;-142.75;100.00;75499.59;4987417;28;20497;-65
2023/07/09 06:55:50;;;;;;;16.38;10.98;;;;;;;-142.75;100.00;75511.41;4987111;28;20552;-65
2023/07/09 06:58:17;;;;;;;21.33;12.90;;;;;;;-142.75;100.00;75507.47;4986932;28;20030;-65
2023/07/09 07:00:42;;;;;;;19.30;12.48;;;;;;;-142.75;100.00;75517.28;4987993;28;20456;-65
2023/07/09 07:03:09;;;;;;;17.00;12.25;;;;;;;-142.75;100.00;75519.25;4987084;28;20149;-65
2023/07/09 07:05:35;;;;;;;25.45;14.80;;;;;;;-142.75;100.00;75542.88;5000072;28;20061;-65
2023/07/09 07:08:01;;;;;;;20.63;14.45;;;;;;;-142.75;100.00;75538.94;5006377;28;20052;-65
2023/07/09 07:10:27;;;;;;;23.45;14.10;;;;;;;-142.75;100.00;75560.59;5005109;28;20036;-65
2023/07/09 07:12:53;;;;;;;19.48;12.90;;;;;;;-142.75;100.00;75578.31;4988784;28;20034;-64
2023/07/09 07:15:19;;;;;;;16.05;11.02;;;;;;;-142.75;100.00;75596.00;4986880;28;20401;-64
2023/07/09 07:17:44;;;;;;;16.55;11.05;;;;;;;-142.75;100.00;75605.84;4986723;28;20026;-64
2023/07/09 07:20:11;;;;;;;14.27;9.43;;;;;;;-142.75;100.00;75623.56;4986411;28;20038;-65
2023/07/09 07:22:37;;;;;;;15.73;8.55;;;;;;;-142.75;100.00;75590.13;4986964;28;20022;-64
2023/07/09 07:25:04;;;;;;;14.52;8.85;;;;;;;-142.75;100.00;75615.69;5002048;28;20037;-65
2023/07/09 07:27:29;;;;;;;13.07;9.15;;;;;;;-142.75;100.00;75625.53;4988404;28;20034;-65
2023/07/09 07:29:55;;;;;;;11.57;8.05;;;;;;;-142.75;100.00;75586.19;5006818;28;20025;-65
2023/07/09 07:32:20;;;;;;;14.93;8.48;;;;;;;-142.75;100.00;75605.84;4993757;28;20018;-65
2023/07/09 07:34:47;;;;;;;14.40;9.25;;;;;;;-142.75;100.00;75572.41;4986654;28;20034;-64
2023/07/09 07:37:13;;;;;;;15.23;9.63;;;;;;;-142.75;100.00;75562.56;4986658;28;20026;-65
2023/07/09 07:39:38;;;;;;;14.07;9.77;;;;;;;-142.75;100.00;75535.00;4989004;28;20502;-65
2023/07/09 07:42:04;;;;;;;16.13;10.85;;;;;;;-142.75;100.00;75535.00;4991255;28;20054;-65
2023/07/09 07:44:29;;;;;;;18.55;11.57;;;;;;;-142.75;100.00;75519.25;4987399;28;20093;-65
2023/07/09 07:46:55;;;;;;;16.50;10.98;;;;;;;-142.75;100.00;75519.25;4991669;28;20025;-65
2023/07/09 07:49:20;;;;;;;15.02;9.25;;;;;;;-142.75;100.00;75529.09;4989141;28;20052;-66
2023/07/09 07:51:45;;;;;;;16.30;8.07;;;;;;;-142.75;100.00;75503.53;4987360;28;20054;-66
2023/07/09 07:54:12;;;;;;;16.27;8.15;;;;;;;-142.75;100.00;75497.63;4988636;28;20451;-64
2023/07/09 07:56:37;;;;;;;14.43;8.85;;;;;;;-142.75;100.00;75499.59;4991263;28;20027;-65
2023/07/09 07:59:03;;;;;;;14.75;8.60;;;;;;;-142.75;100.00;75499.59;4996822;28;20556;-65
2023/07/09 08:01:28;;;;;;;13.90;8.25;;;;;;;-142.75;100.00;75477.94;5006264;28;20481;-65
2023/07/09 08:03:54;;;;;;;13.65;7.80;;;;;;;-142.75;100.00;75475.97;5005443;28;20606;-64
2023/07/09 08:06:20;;;;;;;12.75;8.43;;;;;;;-142.75;100.00;75507.47;5005277;28;20037;-64
2023/07/09 08:08:45;;;;;;;13.85;8.43;;;;;;;-142.75;100.00;75529.09;5003876;28;20021;-65
2023/07/09 08:11:11;;;;;;;14.10;7.70;;;;;;;-142.75;100.00;75542.88;5005322;28;20748;-64
2023/07/09 08:13:38;;;;;;;15.20;6.90;;;;;;;-142.75;100.00;75529.09;5005016;28;20026;-64
2023/07/09 08:16:05;;;;;;;10.80;6.22;;;;;;;-142.75;100.00;75511.41;5005164;28;20056;-64
2023/07/09 08:18:30;;;;;;;10.18;6.10;;;;;;;-142.75;100.00;75495.66;5005143;28;20454;-64
2023/07/09 08:20:55;;;;;;;11.15;6.00;;;;;;;-142.75;100.00;75495.66;5002482;28;20109;-65
2023/07/09 08:23:21;;;;;;;8.00;4.78;;;;;;;-142.75;100.00;75515.31;4985604;28;20034;-64
2023/07/09 08:25:54;;;;;;;9.52;4.57;;;;;;;-142.75;100.00;75499.59;4985831;28;20057;-65
2023/07/09 08:28:19;;;;;;;9.43;4.95;;;;;;;-142.75;100.00;75509.44;4985212;28;20026;-65
2023/07/09 08:30:45;;;;;;;9.77;5.13;;;;;;;-142.75;100.00;75523.19;4985283;28;20022;-65
2023/07/09 08:33:10;;;;;;;10.95;5.72;;;;;;;-142.75;100.00;75535.00;4985521;28;20022;-65
2023/07/09 08:35:35;;;;;;;9.05;4.97;;;;;;;-142.75;100.00;75529.09;4985559;28;20022;-64
2023/07/09 08:38:01;;;;;;;10.00;5.32;;;;;;;-142.75;100.00;75533.03;4984738;28;20042;-64
2023/07/09 08:40:26;;;;;;;7.78;4.95;;;;;;;-142.75;100.00;75493.69;4984094;28;20026;-64
2023/07/09 08:43:02;;;;;;;10.38;4.70;;;;;;;-142.75;100.00;75464.16;4985345;28;20109;-64
2023/07/09 08:45:55;;;;;;;9.45;5.03;;;;;;;-142.75;100.00;75432.69;4990992;28;20030;-64
2023/07/09 08:48:33;;;;;;;8.30;4.82;;;;;;;-142.75;100.00;75418.91;4984950;28;20022;-63
2023/07/09 08:51:07;;;;;;;7.88;4.38;;;;;;;-142.75;100.00;75385.44;4985262;28;20524;-63
2023/07/09 08:53:39;;;;;;;10.95;4.35;;;;;;;-142.75;100.00;75397.25;4985508;28;20060;-64
2023/07/09 08:56:09;;;;;;;7.25;4.03;;;;;;;-142.75;100.00;75409.06;4985484;28;20018;-64
2023/07/09 08:58:36;;;;;;;8.85;5.05;;;;;;;-142.75;100.00;75399.22;4984977;28;20506;-64
2023/07/09 09:01:06;;;;;;;7.18;3.95;;;;;;;-142.75;100.00;75385.44;4986362;28;20048;-63
2023/07/09 09:03:40;;;;;;;7.78;4.40;;;;;;;-142.75;100.00;75407.09;4988482;28;20485;-64
2023/07/09 09:06:15;;;;;;;6.43;4.00;;;;;;;-142.75;100.00;75361.84;5004431;28;20413;-64
2023/07/09 09:08:46;;;;;;;10.32;4.20;;;;;;;-142.75;100.00;75334.28;5004126;28;20025;-64
2023/07/09 09:11:39;;;;;;;9.32;4.40;;;;;;;-142.75;100.00;75294.94;4998125;28;20086;-64
2023/07/09 09:14:16;;;;;;;6.10;4.10;;;;;;;-142.75;100.00;75287.06;4986924;28;20034;-64
2023/07/09 09:16:45;;;;;;;7.47;4.10;;;;;;;-142.75;100.00;75247.69;4995929;28;20051;-64
2023/07/09 09:19:38;;;;;;;7.38;4.25;;;;;;;-142.75;100.00;75277.22;5002485;28;20081;-64
2023/07/09 09:22:15;;;;;;;7.15;4.10;;;;;;;-142.75;100.00;75249.66;5003194;28;20033;-64
2023/07/09 09:24:51;;;;;;;10.35;3.85;;;;;;;-142.75;100.00;75245.72;5002525;28;20026;-64
2023/07/09 09:27:16;;;;;;;7.93;4.20;;;;;;;-142.75;100.00;75243.75;5003300;28;20033;-64
2023/07/09 09:29:42;;;;;;;8.23;3.95;;;;;;;-142.75;100.00;75243.75;5003673;28;20030;-64
2023/07/09 09:32:22;;;;;;;7.15;4.18;;;;;;;-142.75;100.00;75212.28;5003314;28;20026;-64
2023/07/09 09:34:48;;;;;;;7.90;4.50;;;;;;;-142.75;100.00;75257.53;5003306;28;20030;-64
2023/07/09 09:37:25;;;;;;;9.75;4.10;;;;;;;-142.75;100.00;75247.69;5002354;28;20036;-64
2023/07/09 09:39:51;;;;;;;6.97;4.00;;;;;;;-142.75;100.00;75226.06;4983614;28;20220;-63
2023/07/09 09:42:16;;;;;;;11.75;4.88;;;;;;;-142.75;100.00;75204.41;4988782;28;20105;-63
2023/07/09 09:44:45;;;;;;;6.40;3.90;;;;;;;-142.75;100.00;75186.69;4986210;28;20034;-63
2023/07/09 09:47:12;;;;;;;8.52;4.35;;;;;;;-142.75;100.00;75182.75;4989032;28;20069;-63
2023/07/09 09:49:43;;;;;;;7.38;4.40;;;;;;;-142.75;100.00;75161.13;4988020;28;20083;-63
2023/07/09 09:52:15;;;;;;;9.63;4.25;;;;;;;-142.75;100.00;75155.22;4994973;28;20059;-63
2023/07/09 09:54:48;;;;;;;6.95;4.25;;;;;;;-142.75;100.00;75153.25;4986797;28;20081;-62
2023/07/09 09:57:20;;;;;;;8.80;4.70;;;;;;;-142.75;100.00;75137.50;4986324;28;20069;-64
2023/07/09 09:59:46;;;;;;;10.77;4.53;;;;;;;-142.75;100.00;75157.19;4988194;28;20023;-62
2023/07/09 10:02:23;;;;;;;8.88;4.20;;;;;;;-142.75;100.00;75161.13;4990797;28;20030;-63
2023/07/09 10:04:50;;;;;;;8.93;4.78;;;;;;;-142.75;100.00;75198.50;4990467;28;20065;-63
2023/07/09 10:07:23;;;;;;;8.30;4.63;;;;;;;-142.75;100.00;75182.75;4994266;28;20501;-62
2023/07/09 10:09:54;;;;;;;8.30;4.20;;;;;;;-142.75;100.00;75168.97;4990767;28;20101;-63
2023/07/09 10:12:25;;;;;;;7.30;4.00;;;;;;;-142.75;100.00;75127.66;4990030;28;20021;-63
2023/07/09 10:15:05;;;;;;;6.25;3.53;;;;;;;-142.75;100.00;75096.19;4991961;28;20034;-63
2023/07/09 10:17:38;;;;;;;4.70;3.45;;;;;;;-142.75;100.00;75060.75;4989562;28;20033;-64
2023/07/09 10:20:23;;;;;;;6.72;3.53;;;;;;;-142.75;100.00;75046.97;4990611;28;20026;-63
2023/07/09 10:22:48;;;;;;;6.68;3.80;;;;;;;-142.75;100.00;75068.63;4989591;28;20161;-64
2023/07/09 10:25:20;;;;;;;5.55;3.53;;;;;;;-142.75;100.00;75029.28;4992736;28;20109;-64
2023/07/09 10:28:02;;;;;;;6.38;4.07;;;;;;;-142.75;100.00;75045.00;5006668;28;20029;-64
2023/07/09 10:30:39;;;;;;;8.27;3.72;;;;;;;-142.75;100.00;75052.88;5005093;28;20117;-64
2023/07/09 10:33:15;;;;;;;6.55;3.55;;;;;;;-142.75;100.00;74999.75;4987759;28;20105;-64
2023/07/09 10:36:11;;;;;;;6.10;3.65;;;;;;;-142.75;100.00;74946.63;4993835;28;20057;-64
2023/07/09 10:38:59;;;;;;;7.03;4.32;;;;;;;-142.75;100.00;74903.34;4986560;28;20042;-65
2023/07/09 10:41:25;;;;;;;6.70;4.22;;;;;;;-142.75;100.00;74991.88;4987262;28;20238;-64
2023/07/09 10:44:22;;;;;;;8.85;4.55;;;;;;;-142.75;100.00;75027.31;4988303;28;20110;-64
2023/07/09 10:46:50;;;;;;;;;;;;;;;-142.75;100.00;75021.41;4993053;28;20037;-64
2023/07/09 10:49:17;;;;;;;10.45;4.82;;;;;;;-142.75;100.00;75043.03;4989636;28;20016;-64
2023/07/09 10:51:50;;;;;;;8.20;4.90;;;;;;;-142.75;100.00;75070.59;4987368;28;20030;-64
2023/07/09 10:54:37;;;;;;;10.00;4.72;;;;;;;-142.75;100.00;75072.56;4988299;28;20585;-64
2023/07/09 10:57:16;;;;;;;8.70;5.03;;;;;;;-142.75;100.00;75050.91;4992612;28;20033;-64
2023/07/09 10:59:43;;;;;;;8.80;4.57;;;;;;;-142.75;100.00;75029.28;4986456;28;20026;-64
2023/07/09 11:02:30;;;;;;;5.97;2.78;;;;;;;-142.75;100.00;75003.69;4986547;28;20030;-64
2023/07/09 11:04:59;;;;;;;3.92;2.53;;;;;;;-142.75;100.00;75015.50;5000609;28;20068;-64
2023/07/09 11:07:31;;;;;;;4.00;2.80;;;;;;;-142.75;100.00;75005.66;5006181;28;20030;-64